Time;durP1;ratioP1;P1;durP2;ratioP2;P2;SDS_P1;SDS_P2;PMS_P1;PMS_P2;Temp;Humidity;BMP_temperature;BMP_pressure;BME280_temperature;BME280_humidity;BME280_pressure;Samples;Min_cycle;Max_cycle;Signal;HPM_P1;HPM_P2
2021/12/29 00:05:18;;;;;;;175.02;25.33;;;6.60;99.90;;;;;;4772308;29;20466;-90
2021/12/29 00:07:44;;;;;;;177.38;25.10;;;6.70;99.90;;;;;;4762924;29;20051;-89
2021/12/29 00:10:11;;;;;;;190.30;25.45;;;6.70;99.90;;;;;;4760889;29;20047;-88
2021/12/29 00:12:41;;;;;;;254.38;25.60;;;6.70;99.90;;;;;;4746486;29;20043;-90
2021/12/29 00:15:11;;;;;;;184.93;24.38;;;6.70;99.90;;;;;;4757817;29;20070;-89
2021/12/29 00:17:43;;;;;;;239.85;26.80;;;6.70;99.90;;;;;;4745720;29;20056;-88
2021/12/29 00:20:10;;;;;;;157.88;23.20;;;6.70;99.90;;;;;;4741529;29;20336;-86
2021/12/29 00:22:37;;;;;;;217.48;24.80;;;6.70;99.90;;;;;;4757468;29;20062;-89
2021/12/29 00:25:05;;;;;;;269.88;26.42;;;6.70;99.90;;;;;;4721639;30;20065;-91
2021/12/29 00:27:31;;;;;;;176.85;22.20;;;6.70;99.90;;;;;;4754188;30;20078;-88
2021/12/29 00:29:57;;;;;;;157.38;20.58;;;6.70;99.90;;;;;;4752824;29;20527;-88
2021/12/29 00:32:23;;;;;;;117.35;18.90;;;6.70;99.90;;;;;;4737925;29;20047;-89
2021/12/29 00:34:49;;;;;;;114.97;17.80;;;6.70;99.90;;;;;;4741314;29;20043;-89
2021/12/29 00:37:14;;;;;;;98.72;16.98;;;6.70;99.90;;;;;;4747531;29;20038;-88
2021/12/29 00:39:40;;;;;;;99.95;16.20;;;6.60;99.90;;;;;;4749954;29;20043;-88
2021/12/29 00:42:06;;;;;;;146.20;18.75;;;6.60;99.90;;;;;;4759105;29;20070;-88
2021/12/29 00:44:33;;;;;;;99.20;16.92;;;6.60;99.90;;;;;;4745506;29;20289;-89
2021/12/29 00:47:00;;;;;;;98.80;16.35;;;6.60;99.90;;;;;;4737724;29;20070;-88
2021/12/29 00:49:32;;;;;;;111.15;16.05;;;6.60;99.90;;;;;;4739014;29;20557;-89
2021/12/29 00:51:58;;;;;;;86.20;15.63;;;6.60;99.90;;;;;;4756515;29;20073;-89
2021/12/29 00:54:24;;;;;;;93.18;15.38;;;6.60;99.90;;;;;;4756839;29;20439;-88
2021/12/29 00:56:50;;;;;;;89.93;15.55;;;6.60;99.90;;;;;;4747883;29;20043;-88
2021/12/29 00:59:15;;;;;;;140.93;16.75;;;6.60;99.90;;;;;;4732403;29;20040;-88
2021/12/29 01:01:41;;;;;;;138.52;17.52;;;6.60;99.90;;;;;;4732039;29;20063;-87
2021/12/29 01:04:07;;;;;;;102.60;16.17;;;6.60;99.90;;;;;;4742227;29;20047;-87
2021/12/29 01:06:33;;;;;;;148.75;14.85;;;6.60;99.90;;;;;;4738564;29;20054;-87
2021/12/29 01:08:59;;;;;;;99.35;14.25;;;6.60;99.90;;;;;;4749204;29;20051;-88
2021/12/29 01:11:28;;;;;;;86.88;13.27;;;6.60;99.90;;;;;;4757699;29;20062;-88
2021/12/29 01:13:54;;;;;;;142.32;14.27;;;6.60;99.90;;;;;;4722170;30;20048;-87
2021/12/29 01:19:18;;;;;;;100.90;13.80;;;6.50;99.90;;;;;;4748562;29;20166;-89
2021/12/29 01:21:47;;;;;;;124.10;13.77;;;6.60;99.90;;;;;;4771076;29;20042;-87
2021/12/29 01:24:14;;;;;;;82.57;12.80;;;6.60;99.90;;;;;;4754480;29;20162;-89
2021/12/29 01:26:42;;;;;;;75.97;12.77;;;6.50;99.90;;;;;;4738888;29;20063;-87
2021/12/29 01:29:09;;;;;;;88.97;14.65;;;6.60;99.90;;;;;;4755043;29;20047;-88
2021/12/29 01:31:36;;;;;;;92.43;13.75;;;6.60;99.90;;;;;;4736809;29;21162;-89
2021/12/29 01:34:04;;;;;;;102.47;15.20;;;6.60;99.90;;;;;;4739515;29;20109;-89
2021/12/29 01:36:38;;;;;;;108.72;15.45;;;6.60;99.90;;;;;;4766010;29;20063;-91
2021/12/29 01:39:07;;;;;;;133.85;16.98;;;6.60;99.90;;;;;;4769555;29;20074;-93
2021/12/29 01:41:33;;;;;;;147.52;17.25;;;6.60;99.90;;;;;;4761668;30;20055;-91
2021/12/29 01:44:00;;;;;;;131.63;16.63;;;6.60;99.90;;;;;;4753355;29;20047;-87
2021/12/29 01:46:26;;;;;;;144.32;16.73;;;6.60;99.90;;;;;;4764068;29;20051;-90
2021/12/29 01:48:52;;;;;;;182.98;18.23;;;6.60;99.90;;;;;;4743363;29;20107;-90
2021/12/29 01:51:18;;;;;;;163.55;17.75;;;6.60;99.90;;;;;;4739082;29;20626;-89
2021/12/29 01:54:01;;;;;;;200.23;19.25;;;6.60;99.90;;;;;;4725463;29;20131;-87
2021/12/29 01:56:27;;;;;;;;;;;6.60;99.90;;;;;;4760161;29;20051;-88
2021/12/29 01:58:53;;;;;;;206.15;18.83;;;6.60;99.90;;;;;;4780706;29;20341;-86
2021/12/29 02:01:19;;;;;;;233.75;21.00;;;6.60;99.90;;;;;;4762150;29;20104;-88
2021/12/29 02:03:45;;;;;;;300.98;21.70;;;6.70;99.90;;;;;;4728494;29;20050;-88
2021/12/29 02:06:11;;;;;;;253.55;21.92;;;6.70;99.90;;;;;;4741860;29;20084;-88
2021/12/29 02:08:36;;;;;;;253.80;21.70;;;6.70;99.90;;;;;;4756482;29;20399;-87
2021/12/29 02:11:04;;;;;;;329.70;24.05;;;6.70;99.90;;;;;;4739390;30;20047;-88
2021/12/29 02:13:30;;;;;;;258.60;22.35;;;6.70;99.90;;;;;;4754093;29;20035;-87
2021/12/29 02:15:56;;;;;;;306.67;22.48;;;6.70;99.90;;;;;;4759086;29;20046;-88
2021/12/29 02:18:25;;;;;;;229.20;21.55;;;6.70;99.90;;;;;;4742404;29;20436;-88
2021/12/29 02:20:54;;;;;;;302.00;22.67;;;6.80;99.90;;;;;;4743940;29;20280;-87
2021/12/29 02:23:33;;;;;;;307.73;22.92;;;6.80;99.90;;;;;;4757904;30;20073;-88
2021/12/29 02:26:00;;;;;;;371.35;25.13;;;6.80;99.90;;;;;;4738786;29;20055;-87
2021/12/29 02:28:35;;;;;;;334.05;24.77;;;6.90;99.90;;;;;;4758179;29;20134;-89
2021/12/29 02:31:02;;;;;;;352.83;24.15;;;6.90;99.90;;;;;;4769733;29;20054;-87
2021/12/29 02:33:30;;;;;;;261.38;22.00;;;6.90;99.90;;;;;;4768435;29;20100;-87
2021/12/29 02:35:58;;;;;;;325.38;22.05;;;6.90;99.90;;;;;;4739806;29;20050;-88
2021/12/29 02:38:36;;;;;;;385.67;23.92;;;6.90;99.90;;;;;;4748651;29;20528;-89
2021/12/29 02:41:06;;;;;;;205.00;19.15;;;6.90;99.90;;;;;;4758270;29;20555;-89
2021/12/29 02:43:37;;;;;;;281.40;19.08;;;6.90;99.90;;;;;;4742730;29;20430;-86
2021/12/29 02:46:11;;;;;;;290.33;18.77;;;6.90;99.90;;;;;;4746940;29;20058;-89
2021/12/29 02:48:41;;;;;;;163.18;16.48;;;6.90;99.90;;;;;;4754194;29;20039;-88
2021/12/29 02:51:08;;;;;;;160.05;15.05;;;7.00;99.90;;;;;;4743212;29;20050;-88
2021/12/29 02:53:35;;;;;;;148.45;14.68;;;7.00;99.90;;;;;;4757999;29;20507;-90
2021/12/29 02:56:04;;;;;;;197.27;15.13;;;7.00;99.90;;;;;;4738310;29;20048;-90
2021/12/29 02:58:31;;;;;;;154.88;15.05;;;7.00;99.90;;;;;;4761715;29;20384;-89
2021/12/29 03:00:59;;;;;;;172.25;16.42;;;7.00;99.90;;;;;;4750395;29;20042;-88
2021/12/29 03:03:27;;;;;;;166.25;15.10;;;7.10;99.90;;;;;;4742770;29;20154;-88
2021/12/29 03:05:54;;;;;;;178.45;16.63;;;7.10;99.90;;;;;;4752426;29;20459;-88
2021/12/29 03:08:21;;;;;;;209.63;16.13;;;7.10;99.90;;;;;;4753930;29;20203;-88
2021/12/29 03:10:52;;;;;;;201.88;15.45;;;7.10;99.90;;;;;;4721318;29;20285;-88
2021/12/29 03:13:19;;;;;;;172.50;16.02;;;7.10;99.90;;;;;;4754647;29;20145;-89
2021/12/29 03:15:44;;;;;;;159.40;14.65;;;7.10;99.90;;;;;;4756533;29;20051;-87
2021/12/29 03:18:10;;;;;;;177.20;14.93;;;7.10;99.90;;;;;;4749077;29;20055;-88
2021/12/29 03:20:36;;;;;;;155.65;15.32;;;7.10;99.90;;;;;;4739431;29;20043;-88
2021/12/29 03:23:02;;;;;;;143.80;15.80;;;7.10;99.90;;;;;;4735746;29;20081;-88
2021/12/29 03:25:28;;;;;;;133.30;16.40;;;7.10;99.90;;;;;;4749897;30;20108;-89
2021/12/29 03:28:00;;;;;;;151.32;17.73;;;7.10;99.90;;;;;;4742360;29;20081;-89
2021/12/29 03:30:27;;;;;;;160.45;18.75;;;7.10;99.90;;;;;;4773361;29;20120;-88
2021/12/29 03:33:02;;;;;;;147.70;18.27;;;7.10;99.90;;;;;;4740567;29;20162;-89
2021/12/29 03:35:32;;;;;;;165.77;19.38;;;7.20;99.90;;;;;;4754527;29;20049;-89
2021/12/29 03:38:01;;;;;;;175.10;20.92;;;7.20;99.90;;;;;;4747958;29;20391;-90
2021/12/29 03:40:27;;;;;;;201.27;21.50;;;7.20;99.90;;;;;;4760492;29;20309;-90
2021/12/29 03:42:53;;;;;;;189.82;22.63;;;7.20;99.90;;;;;;4761212;30;20149;-90
2021/12/29 03:45:19;;;;;;;200.52;23.88;;;7.20;99.90;;;;;;4762410;29;20130;-90
2021/12/29 03:47:45;;;;;;;203.93;23.20;;;7.20;99.90;;;;;;4740726;29;20043;-89
2021/12/29 03:50:11;;;;;;;225.98;23.90;;;7.30;99.90;;;;;;4731746;29;20497;-89
2021/12/29 03:52:37;;;;;;;212.45;25.83;;;7.30;99.90;;;;;;4743422;29;20043;-89
2021/12/29 03:55:03;;;;;;;206.00;25.70;;;7.30;99.90;;;;;;4728943;29;20083;-88
2021/12/29 03:57:29;;;;;;;250.20;27.90;;;7.30;99.90;;;;;;4750168;29;20047;-91
2021/12/29 03:59:55;;;;;;;203.35;26.75;;;7.30;99.90;;;;;;4749361;29;20100;-90
2021/12/29 04:02:21;;;;;;;212.65;28.52;;;7.30;99.90;;;;;;4744380;29;20057;-92
2021/12/29 04:04:47;;;;;;;207.60;28.65;;;7.30;99.90;;;;;;4761966;29;20043;-88
2021/12/29 04:07:13;;;;;;;221.75;28.52;;;7.30;99.90;;;;;;4747352;30;20043;-89
2021/12/29 04:09:42;;;;;;;187.20;28.27;;;7.40;99.90;;;;;;4767274;29;20078;-87
2021/12/29 04:12:08;;;;;;;215.68;28.92;;;7.30;99.90;;;;;;4759864;29;20531;-91
2021/12/29 04:14:34;;;;;;;202.20;30.25;;;7.40;99.90;;;;;;4757867;29;20047;-89
2021/12/29 04:17:08;;;;;;;185.60;30.75;;;7.40;99.90;;;;;;4751544;29;20051;-89
2021/12/29 04:22:20;;;;;;;185.00;29.38;;;7.40;99.90;;;;;;4782757;29;20059;-89
2021/12/29 04:24:46;;;;;;;191.27;29.63;;;7.40;99.90;;;;;;4733891;29;20055;-90
2021/12/29 04:27:12;;;;;;;237.13;32.47;;;7.40;99.90;;;;;;4736591;29;20399;-88
2021/12/29 04:29:37;;;;;;;210.55;30.80;;;7.40;99.90;;;;;;4733439;29;20144;-87
2021/12/29 04:32:04;;;;;;;201.90;32.45;;;7.50;99.90;;;;;;4740728;29;20043;-91
2021/12/29 04:34:29;;;;;;;203.32;31.08;;;7.50;99.90;;;;;;4740364;29;20511;-87
2021/12/29 04:36:55;;;;;;;216.00;32.20;;;7.50;99.90;;;;;;4744803;29;20138;-89
2021/12/29 04:39:21;;;;;;;222.75;33.72;;;7.50;99.90;;;;;;4740279;29;20423;-87
2021/12/29 04:41:47;;;;;;;280.63;33.67;;;7.50;99.90;;;;;;4746267;29;20477;-88
2021/12/29 04:44:13;;;;;;;264.52;32.70;;;7.50;99.90;;;;;;4752279;29;20138;-89
2021/12/29 04:46:41;;;;;;;219.85;32.83;;;7.50;99.90;;;;;;4750726;29;20082;-86
2021/12/29 04:49:12;;;;;;;179.18;31.15;;;7.50;99.90;;;;;;4745744;29;20396;-89
2021/12/29 04:51:55;;;;;;;234.15;30.88;;;7.50;99.90;;;;;;4766748;30;20047;-93
2021/12/29 04:54:21;;;;;;;196.38;30.05;;;7.50;99.90;;;;;;4762127;29;20074;-90
2021/12/29 04:56:47;;;;;;;185.20;29.80;;;7.50;99.90;;;;;;4754966;29;20343;-88
2021/12/29 04:59:15;;;;;;;221.45;29.52;;;7.50;99.90;;;;;;4761986;29;20126;-92
2021/12/29 05:01:42;;;;;;;174.10;28.52;;;7.50;99.90;;;;;;4761603;29;20043;-86
2021/12/29 05:04:08;;;;;;;207.10;29.45;;;7.50;99.90;;;;;;4762817;29;20503;-87
2021/12/29 05:09:20;;;;;;;161.20;27.48;;;7.50;99.90;;;;;;4750718;29;20097;-89
2021/12/29 05:11:46;;;;;;;182.27;27.27;;;7.50;99.90;;;;;;4732663;29;20689;-89
2021/12/29 05:14:13;;;;;;;167.43;26.25;;;7.50;99.90;;;;;;4746421;29;20043;-89
2021/12/29 05:16:38;;;;;;;161.70;25.08;;;7.50;99.90;;;;;;4724745;29;20301;-90
2021/12/29 05:19:04;;;;;;;177.40;25.70;;;7.50;99.90;;;;;;4724178;29;20055;-89
2021/12/29 05:21:30;;;;;;;129.55;24.65;;;7.50;99.90;;;;;;4740649;29;20484;-88
2021/12/29 05:23:56;;;;;;;159.57;26.45;;;7.50;99.90;;;;;;4731543;29;20105;-87
2021/12/29 05:26:22;;;;;;;136.48;25.23;;;7.60;99.90;;;;;;4741544;29;20755;-89
2021/12/29 05:28:48;;;;;;;126.43;26.50;;;7.50;99.90;;;;;;4761571;29;20355;-90
2021/12/29 05:31:14;;;;;;;146.32;25.52;;;7.50;99.90;;;;;;4740979;29;20047;-89
2021/12/29 05:33:40;;;;;;;153.57;25.27;;;7.60;99.90;;;;;;4740940;29;20043;-87
2021/12/29 05:36:06;;;;;;;146.88;26.67;;;7.60;99.90;;;;;;4751806;29;20050;-86
2021/12/29 05:38:32;;;;;;;170.55;26.05;;;7.60;99.90;;;;;;4754067;29;20053;-90
2021/12/29 05:40:57;;;;;;;161.25;25.52;;;7.60;99.90;;;;;;4736437;29;20051;-86
2021/12/29 05:43:23;;;;;;;161.00;26.95;;;7.60;99.90;;;;;;4741257;29;20051;-88
2021/12/29 05:45:50;;;;;;;161.88;25.60;;;7.60;99.90;;;;;;4740513;29;20054;-87
2021/12/29 05:48:17;;;;;;;136.25;25.33;;;7.60;99.90;;;;;;4746600;29;20051;-89
2021/12/29 05:50:43;;;;;;;143.15;25.42;;;7.60;99.90;;;;;;4732333;29;20057;-88
2021/12/29 05:53:09;;;;;;;172.05;27.15;;;7.60;99.90;;;;;;4758529;30;20516;-90
2021/12/29 05:55:35;;;;;;;148.43;26.30;;;7.60;99.90;;;;;;4730396;29;20103;-89
2021/12/29 05:58:01;;;;;;;142.88;26.45;;;7.60;99.90;;;;;;4750716;29;20050;-88
2021/12/29 06:00:28;;;;;;;134.57;25.15;;;7.60;99.90;;;;;;4741789;29;20047;-91
2021/12/29 06:02:54;;;;;;;137.70;26.20;;;7.60;99.90;;;;;;4761354;29;20143;-89
2021/12/29 06:05:21;;;;;;;130.48;26.17;;;7.60;99.90;;;;;;4748999;29;20086;-90
2021/12/29 06:07:47;;;;;;;135.80;25.85;;;7.60;99.90;;;;;;4748485;29;20104;-88
2021/12/29 06:10:13;;;;;;;121.95;25.40;;;7.60;99.90;;;;;;4761080;29;20501;-89
2021/12/29 06:12:40;;;;;;;121.07;26.52;;;7.60;99.90;;;;;;4764445;29;20046;-87
2021/12/29 06:15:07;;;;;;;159.20;27.63;;;7.60;99.90;;;;;;4760268;29;20043;-87
2021/12/29 06:17:34;;;;;;;149.30;27.08;;;7.60;99.90;;;;;;4754048;29;20171;-87
2021/12/29 06:20:00;;;;;;;121.50;25.42;;;7.60;99.90;;;;;;4752936;29;20047;-86
2021/12/29 06:22:26;;;;;;;162.88;26.77;;;7.60;99.90;;;;;;4754344;29;20051;-87
2021/12/29 06:24:52;;;;;;;155.90;26.42;;;7.60;99.90;;;;;;4760047;29;20507;-88
2021/12/29 06:27:23;;;;;;;140.65;26.90;;;7.60;99.90;;;;;;4755752;29;20120;-87
2021/12/29 06:29:50;;;;;;;101.88;23.90;;;7.60;99.90;;;;;;4744802;30;20047;-85
2021/12/29 06:32:16;;;;;;;112.07;26.65;;;7.60;99.90;;;;;;4737849;29;20133;-86
2021/12/29 06:34:42;;;;;;;132.50;26.15;;;7.60;99.90;;;;;;4741584;29;20079;-89
2021/12/29 06:37:08;;;;;;;164.95;27.15;;;7.70;99.90;;;;;;4786599;29;20047;-87
2021/12/29 06:39:40;;;;;;;126.93;25.92;;;7.60;99.90;;;;;;4775224;29;20452;-90
2021/12/29 06:42:06;;;;;;;124.53;25.95;;;7.70;99.90;;;;;;4765496;29;20118;-87
2021/12/29 06:44:32;;;;;;;137.85;26.67;;;7.60;99.90;;;;;;4739821;29;20047;-87
2021/12/29 06:46:58;;;;;;;130.13;25.85;;;7.60;99.90;;;;;;4732512;29;20130;-87
2021/12/29 06:49:24;;;;;;;153.02;25.83;;;7.60;99.90;;;;;;4736824;29;20043;-88
2021/12/29 06:51:50;;;;;;;122.47;25.75;;;7.60;99.90;;;;;;4734630;29;20051;-87
2021/12/29 06:54:16;;;;;;;129.02;25.27;;;7.60;99.90;;;;;;4748085;29;20043;-87
2021/12/29 06:56:42;;;;;;;123.00;24.20;;;7.60;99.90;;;;;;4742002;29;20047;-87
2021/12/29 06:59:08;;;;;;;147.90;26.50;;;7.60;99.90;;;;;;4755688;29;20047;-87
2021/12/29 07:01:34;;;;;;;135.93;24.77;;;7.60;99.90;;;;;;4763807;29;20498;-87
2021/12/29 07:04:00;;;;;;;143.85;26.02;;;7.60;99.90;;;;;;4724696;30;20043;-88
2021/12/29 07:06:26;;;;;;;151.55;26.27;;;7.60;99.90;;;;;;4743854;29;20048;-86
2021/12/29 07:08:52;;;;;;;142.40;25.65;;;7.60;99.90;;;;;;4771162;29;20182;-88
2021/12/29 07:11:17;;;;;;;141.13;26.25;;;7.60;99.90;;;;;;4754338;29;20062;-87
2021/12/29 07:13:44;;;;;;;127.50;24.27;;;7.60;99.90;;;;;;4742498;29;20044;-87
2021/12/29 07:16:16;;;;;;;;;;;7.60;99.90;;;;;;4743115;29;20055;-88
2021/12/29 07:18:42;;;;;;;107.75;22.98;;;7.60;99.90;;;;;;4745087;30;19928;-87
2021/12/29 07:21:08;;;;;;;146.73;23.88;;;7.60;99.90;;;;;;4745729;29;20053;-87
2021/12/29 07:23:34;;;;;;;138.07;23.23;;;7.60;99.90;;;;;;4741291;30;20047;-87
2021/12/29 07:26:00;;;;;;;133.68;24.45;;;7.60;99.90;;;;;;4753449;30;20051;-87
2021/12/29 07:28:26;;;;;;;166.57;24.33;;;7.60;99.90;;;;;;4743945;30;20619;-87
2021/12/29 07:30:52;;;;;;;112.93;22.17;;;7.50;99.90;;;;;;4739963;29;20044;-87
2021/12/29 07:33:17;;;;;;;127.10;22.55;;;7.60;99.90;;;;;;4732080;29;20039;-88
2021/12/29 07:35:43;;;;;;;143.07;21.15;;;7.50;99.90;;;;;;4740188;30;20419;-87
2021/12/29 07:38:09;;;;;;;113.07;20.60;;;7.60;99.90;;;;;;4731330;29;20247;-87
2021/12/29 07:40:35;;;;;;;120.65;20.55;;;7.60;99.90;;;;;;4758060;29;20046;-88
2021/12/29 07:43:02;;;;;;;108.72;20.17;;;7.50;99.90;;;;;;4746629;30;20126;-87
2021/12/29 07:45:28;;;;;;;103.20;20.15;;;7.60;99.90;;;;;;4743498;29;20060;-87
2021/12/29 07:47:54;;;;;;;108.60;19.75;;;7.60;99.90;;;;;;4747433;30;20104;-87
2021/12/29 07:50:21;;;;;;;129.25;21.20;;;7.50;99.90;;;;;;4731898;29;20130;-87
2021/12/29 07:52:48;;;;;;;113.10;20.20;;;7.60;99.90;;;;;;4745698;30;20400;-85
2021/12/29 07:55:20;;;;;;;115.03;20.55;;;7.60;99.90;;;;;;4748474;29;20192;-88
2021/12/29 07:57:47;;;;;;;111.68;20.30;;;7.60;99.90;;;;;;4733638;30;20057;-87
2021/12/29 08:00:14;;;;;;;110.60;19.98;;;7.60;99.90;;;;;;4736796;29;20290;-87
2021/12/29 08:02:43;;;;;;;104.20;18.20;;;7.60;99.90;;;;;;4762522;29;21657;-87
2021/12/29 08:05:11;;;;;;;124.38;19.63;;;7.60;99.90;;;;;;4764675;29;20089;-87
2021/12/29 08:07:37;;;;;;;97.38;18.25;;;7.60;99.90;;;;;;4735311;30;20723;-87
2021/12/29 08:10:03;;;;;;;99.68;17.70;;;7.60;99.90;;;;;;4734426;30;20047;-87
2021/12/29 08:12:29;;;;;;;143.32;20.73;;;7.60;99.90;;;;;;4730356;30;20043;-87
2021/12/29 08:14:55;;;;;;;125.68;19.05;;;7.70;99.90;;;;;;4740499;30;20062;-88
2021/12/29 08:17:21;;;;;;;174.65;22.02;;;7.60;99.90;;;;;;4739152;29;20070;-87
2021/12/29 08:19:46;;;;;;;161.77;21.55;;;7.60;99.90;;;;;;4747555;30;20066;-87
2021/12/29 08:22:12;;;;;;;120.53;20.08;;;7.60;99.90;;;;;;4730725;29;20039;-86
2021/12/29 08:24:38;;;;;;;168.07;21.67;;;7.70;99.90;;;;;;4723842;30;20043;-87
2021/12/29 08:27:05;;;;;;;172.30;22.40;;;7.70;99.90;;;;;;4736708;29;21348;-89
2021/12/29 08:29:31;;;;;;;127.88;21.48;;;7.70;99.90;;;;;;4722436;29;20131;-87
2021/12/29 08:31:57;;;;;;;224.35;24.52;;;7.70;99.90;;;;;;4720377;30;20518;-87
2021/12/29 08:34:24;;;;;;;216.40;25.02;;;7.70;99.90;;;;;;4762361;29;20059;-87
2021/12/29 08:36:50;;;;;;;243.98;25.25;;;7.70;99.90;;;;;;4742617;30;20404;-87
2021/12/29 08:39:18;;;;;;;217.25;25.48;;;7.70;99.90;;;;;;4758085;29;20407;-87
2021/12/29 08:41:45;;;;;;;318.25;27.67;;;7.70;99.90;;;;;;4758579;29;20403;-87
2021/12/29 08:44:12;;;;;;;242.30;26.80;;;7.70;99.90;;;;;;4747130;29;20116;-86
2021/12/29 08:46:38;;;;;;;227.60;25.88;;;7.70;99.90;;;;;;4749676;30;20491;-87
2021/12/29 08:49:04;;;;;;;261.23;28.13;;;7.70;99.90;;;;;;4751589;30;20052;-89
2021/12/29 08:51:30;;;;;;;227.20;27.08;;;7.70;99.90;;;;;;4741334;30;20075;-87
2021/12/29 08:53:57;;;;;;;238.85;26.45;;;7.70;99.90;;;;;;4754222;29;20126;-87
2021/12/29 08:56:24;;;;;;;184.00;27.13;;;7.70;99.90;;;;;;4750580;29;20108;-88
2021/12/29 08:58:51;;;;;;;203.38;27.23;;;7.80;99.90;;;;;;4756630;30;20145;-87
2021/12/29 09:01:18;;;;;;;191.80;28.02;;;7.80;99.90;;;;;;4764027;29;20047;-87
2021/12/29 09:03:44;;;;;;;192.88;26.25;;;7.80;99.90;;;;;;4744948;30;20043;-86
2021/12/29 09:06:11;;;;;;;218.68;26.75;;;7.80;99.90;;;;;;4758933;29;20377;-85
2021/12/29 09:08:37;;;;;;;191.43;24.95;;;7.80;99.90;;;;;;4771744;29;20070;-87
2021/12/29 09:11:03;;;;;;;180.57;24.63;;;7.80;99.90;;;;;;4754132;30;20500;-87
2021/12/29 09:13:29;;;;;;;203.82;25.67;;;7.80;99.90;;;;;;4738658;29;20138;-87
2021/12/29 09:15:57;;;;;;;257.80;26.50;;;7.80;99.90;;;;;;4736630;30;20039;-86
2021/12/29 09:18:24;;;;;;;192.77;23.88;;;7.90;99.90;;;;;;4758351;29;20047;-88
2021/12/29 09:20:50;;;;;;;159.20;23.08;;;7.90;99.90;;;;;;4756840;30;20403;-87
2021/12/29 09:23:19;;;;;;;143.88;23.10;;;7.90;99.90;;;;;;4748728;30;20047;-87
2021/12/29 09:25:47;;;;;;;147.13;22.23;;;7.90;99.90;;;;;;4746433;30;20359;-87
2021/12/29 09:28:28;;;;;;;;;;;;;;;;;;;;;
2021/12/29 09:31:16;;;;;;;144.43;22.00;;;7.90;99.90;;;;;;4751213;30;20043;-88
2021/12/29 09:33:46;;;;;;;174.10;22.58;;;7.90;99.90;;;;;;4764653;29;20043;-87
2021/12/29 09:36:15;;;;;;;194.38;22.70;;;7.90;99.90;;;;;;4757322;29;20399;-87
2021/12/29 09:38:43;;;;;;;184.38;23.77;;;8.00;99.90;;;;;;4761528;30;20044;-87
2021/12/29 09:41:15;;;;;;;220.25;23.17;;;8.00;99.90;;;;;;4777609;29;20035;-86
2021/12/29 09:43:43;;;;;;;176.38;21.88;;;8.00;99.90;;;;;;4739918;29;20110;-86
2021/12/29 09:46:11;;;;;;;232.93;23.90;;;8.00;99.90;;;;;;4767986;29;20043;-85
2021/12/29 09:48:38;;;;;;;187.48;21.20;;;8.00;99.90;;;;;;4766863;29;20047;-86
2021/12/29 09:51:08;;;;;;;155.00;21.60;;;8.10;99.90;;;;;;4754707;30;20051;-86
2021/12/29 09:53:36;;;;;;;173.07;20.98;;;8.10;99.90;;;;;;4736244;29;20438;-87
2021/12/29 09:56:26;;;;;;;;;;;;;;;;;;;;;
2021/12/29 09:58:52;;;;;;;114.22;17.58;;;8.10;99.90;;;;;;4751233;30;22072;-85
2021/12/29 10:01:19;;;;;;;115.30;17.13;;;8.20;99.90;;;;;;4747275;29;20047;-87
2021/12/29 10:03:45;;;;;;;114.70;18.05;;;8.20;99.90;;;;;;4747439;29;20050;-88
2021/12/29 10:06:12;;;;;;;99.30;16.08;;;8.20;99.90;;;;;;4736707;29;21685;-87
2021/12/29 10:08:44;;;;;;;104.30;16.35;;;8.20;99.90;;;;;;4738538;30;20054;-87
2021/12/29 10:11:19;;;;;;;137.53;17.27;;;8.30;99.90;;;;;;4752525;30;20119;-85
2021/12/29 10:13:47;;;;;;;92.18;15.55;;;8.30;99.90;;;;;;4748266;30;20324;-87
2021/12/29 10:16:24;;;;;;;101.70;16.30;;;8.30;99.90;;;;;;4768747;29;20535;-90
2021/12/29 10:19:08;;;;;;;102.60;15.98;;;8.30;99.90;;;;;;4777357;29;20047;-87
2021/12/29 10:21:47;;;;;;;74.22;15.02;;;8.30;99.90;;;;;;4770917;30;20054;-87
2021/12/29 10:24:19;;;;;;;67.68;13.45;;;8.30;99.90;;;;;;4756591;29;20134;-87
2021/12/29 10:26:48;;;;;;;69.53;13.57;;;8.40;99.90;;;;;;4767010;29;20047;-86
2021/12/29 10:29:17;;;;;;;57.80;11.90;;;8.40;99.90;;;;;;4750105;29;20328;-86
2021/12/29 10:31:50;;;;;;;62.00;13.50;;;8.40;99.90;;;;;;4751877;29;20051;-87
2021/12/29 10:34:24;;;;;;;52.78;12.13;;;8.40;99.90;;;;;;4746618;29;20415;-86
2021/12/29 10:36:55;;;;;;;50.17;12.30;;;8.40;99.90;;;;;;4757338;30;20522;-87
2021/12/29 10:39:25;;;;;;;45.97;12.15;;;8.40;99.90;;;;;;4759690;29;20185;-87
2021/12/29 10:42:04;;;;;;;48.53;12.05;;;8.40;99.90;;;;;;4754362;30;20051;-86
2021/12/29 10:44:45;;;;;;;;;;;;;;;;;;;;;
2021/12/29 10:47:26;;;;;;;56.90;12.52;;;8.50;99.90;;;;;;4769909;29;20072;-88
2021/12/29 10:50:14;;;;;;;42.40;12.07;;;8.40;99.90;;;;;;4759430;30;20075;-87
2021/12/29 10:52:50;;;;;;;44.67;11.27;;;8.50;99.90;;;;;;4777137;29;20507;-86
2021/12/29 10:55:31;;;;;;;42.33;11.60;;;8.50;99.90;;;;;;4736176;29;20058;-87
2021/12/29 10:58:15;;;;;;;28.85;11.00;;;8.50;99.90;;;;;;4758615;29;20039;-85
2021/12/29 11:00:45;;;;;;;40.63;11.80;;;8.50;99.90;;;;;;4743100;30;20071;-86
2021/12/29 11:03:17;;;;;;;39.38;11.93;;;8.50;99.90;;;;;;4759671;30;20043;-86
2021/12/29 11:05:47;;;;;;;41.28;12.07;;;8.40;99.90;;;;;;4757644;30;20389;-87
2021/12/29 11:08:14;;;;;;;32.03;12.38;;;8.40;99.90;;;;;;4757873;29;20557;-86
2021/12/29 12:04:47;;;;;;;32.88;13.07;;;8.60;99.90;;;;;;4807845;29;20474;-88
2021/12/29 12:46:43;;;;;;;39.10;12.57;;;8.60;99.90;;;;;;4686033;30;19949;-89
2021/12/29 13:04:40;;;;;;;33.88;13.75;;;8.60;99.90;;;;;;4713084;30;20124;-88
2021/12/29 13:12:09;;;;;;;48.10;14.57;;;8.50;99.90;;;;;;4637815;30;20416;-89
2021/12/29 13:34:12;;;;;;;58.50;16.73;;;8.50;99.90;;;;;;4710513;30;20147;-88
2021/12/29 13:48:25;;;;;;;59.95;18.67;;;8.40;99.90;;;;;;4732860;30;20094;-89
2021/12/29 13:50:55;;;;;;;68.75;20.02;;;8.40;99.90;;;;;;4704284;30;20059;-89
2021/12/29 13:53:27;;;;;;;59.63;19.83;;;8.40;99.90;;;;;;4765530;29;20682;-90
2021/12/29 13:56:07;;;;;;;70.80;19.45;;;8.40;99.90;;;;;;4773304;29;20131;-89
2021/12/29 13:58:42;;;;;;;66.00;21.30;;;8.40;99.90;;;;;;4780151;29;20047;-91
2021/12/29 14:01:13;;;;;;;62.95;19.75;;;8.30;99.90;;;;;;4774331;29;20149;-89
2021/12/29 14:03:39;;;;;;;62.00;19.67;;;8.30;99.90;;;;;;4754234;29;20487;-89
2021/12/29 14:06:08;;;;;;;58.08;20.15;;;8.30;99.90;;;;;;4769908;29;20135;-88
2021/12/29 14:08:35;;;;;;;49.00;19.77;;;8.30;99.90;;;;;;4758022;29;20125;-87
2021/12/29 14:11:08;;;;;;;55.58;20.70;;;8.30;99.90;;;;;;4757107;29;20083;-85
2021/12/29 14:13:40;;;;;;;69.85;21.25;;;8.30;99.90;;;;;;4772663;29;20039;-87
2021/12/29 14:16:09;;;;;;;69.60;21.27;;;8.20;99.90;;;;;;4775101;29;20571;-85
2021/12/29 14:18:41;;;;;;;69.63;20.80;;;8.20;99.90;;;;;;4767851;29;20088;-86
2021/12/29 14:21:30;;;;;;;57.88;21.30;;;8.20;99.90;;;;;;4771498;29;20077;-85
2021/12/29 14:24:06;;;;;;;57.03;21.63;;;8.20;99.90;;;;;;4773571;29;20039;-86
2021/12/29 14:26:41;;;;;;;73.45;22.13;;;8.20;99.90;;;;;;4774773;29;20423;-86
2021/12/29 14:29:08;;;;;;;65.50;21.77;;;8.20;99.90;;;;;;4774298;29;20055;-87
2021/12/29 14:31:55;;;;;;;63.65;22.88;;;8.10;99.90;;;;;;4757298;29;20055;-86
2021/12/29 14:34:36;;;;;;;56.75;21.17;;;8.10;99.90;;;;;;4774344;29;20534;-86
2021/12/29 14:37:08;;;;;;;64.30;23.45;;;8.20;99.90;;;;;;4771107;29;20054;-86
2021/12/29 14:39:39;;;;;;;66.57;23.05;;;8.10;99.90;;;;;;4776394;29;20185;-86
2021/12/29 14:42:28;;;;;;;69.80;24.25;;;8.10;99.90;;;;;;4743587;29;20527;-87
2021/12/29 14:44:59;;;;;;;72.10;24.40;;;8.10;99.90;;;;;;4781873;29;20031;-85
2021/12/29 14:47:27;;;;;;;62.72;23.10;;;8.10;99.90;;;;;;4771858;29;20046;-86
2021/12/29 14:50:01;;;;;;;69.70;23.83;;;8.10;99.90;;;;;;4756176;29;20046;-87
2021/12/29 14:52:34;;;;;;;58.15;24.00;;;8.10;99.90;;;;;;4773281;29;20043;-88
2021/12/29 14:55:00;;;;;;;63.20;25.23;;;8.10;99.90;;;;;;4774442;29;20059;-87
2021/12/29 14:57:31;;;;;;;69.07;24.13;;;8.00;99.90;;;;;;4796143;29;20054;-87
2021/12/29 15:00:20;;;;;;;69.70;25.85;;;8.10;99.90;;;;;;4780438;29;20147;-88
2021/12/29 15:02:49;;;;;;;87.90;24.92;;;8.10;99.90;;;;;;4777590;29;20069;-88
2021/12/29 15:05:23;;;;;;;69.72;25.58;;;8.00;99.90;;;;;;4757807;29;20042;-90
2021/12/29 15:07:56;;;;;;;77.18;25.58;;;8.00;99.90;;;;;;4771513;29;20047;-90
2021/12/29 15:10:36;;;;;;;88.97;26.77;;;8.00;99.90;;;;;;4773306;29;20564;-90
2021/12/29 15:13:04;;;;;;;89.70;28.17;;;8.00;99.90;;;;;;4774009;29;20054;-89
2021/12/29 15:15:34;;;;;;;78.30;27.42;;;8.00;99.90;;;;;;4780175;29;20434;-89
2021/12/29 15:18:01;;;;;;;121.13;29.33;;;8.00;99.90;;;;;;4780894;29;20471;-91